sensor_id;sensor_type;location;lat;lon;timestamp;P1;durP1;ratioP1;P2;durP2;ratioP2
83814;SDS011;73829;53.826;-3.034;2024-02-28T00:01:48;5.30;;;1.30;;
83814;SDS011;73829;53.826;-3.034;2024-02-28T00:04:20;6.10;;;1.20;;
83814;SDS011;73829;53.826;-3.034;2024-02-28T00:06:51;5.10;;;1.40;;
83814;SDS011;73829;53.826;-3.034;2024-02-28T00:09:24;5.80;;;1.50;;
83814;SDS011;73829;53.826;-3.034;2024-02-28T00:11:56;6.80;;;1.40;;
83814;SDS011;73829;53.826;-3.034;2024-02-28T00:14:27;4.90;;;1.40;;
83814;SDS011;73829;53.826;-3.034;2024-02-28T00:16:58;6.10;;;1.60;;
83814;SDS011;73829;53.826;-3.034;2024-02-28T00:19:31;5.00;;;1.20;;
83814;SDS011;73829;53.826;-3.034;2024-02-28T00:22:02;4.10;;;1.10;;
83814;SDS011;73829;53.826;-3.034;2024-02-28T00:24:33;6.10;;;1.20;;
83814;SDS011;73829;53.826;-3.034;2024-02-28T00:27:05;5.20;;;1.30;;
83814;SDS011;73829;53.826;-3.034;2024-02-28T00:29:37;4.30;;;1.10;;
83814;SDS011;73829;53.826;-3.034;2024-02-28T00:32:08;6.60;;;1.60;;
83814;SDS011;73829;53.826;-3.034;2024-02-28T00:34:39;5.80;;;1.20;;
83814;SDS011;73829;53.826;-3.034;2024-02-28T00:37:10;6.80;;;1.20;;
83814;SDS011;73829;53.826;-3.034;2024-02-28T00:39:42;5.90;;;1.20;;
83814;SDS011;73829;53.826;-3.034;2024-02-28T00:42:14;4.00;;;1.10;;
83814;SDS011;73829;53.826;-3.034;2024-02-28T00:44:45;6.30;;;1.40;;
83814;SDS011;73829;53.826;-3.034;2024-02-28T00:47:17;4.60;;;1.10;;
83814;SDS011;73829;53.826;-3.034;2024-02-28T00:49:48;3.70;;;0.90;;
83814;SDS011;73829;53.826;-3.034;2024-02-28T00:52:19;2.90;;;0.70;;
83814;SDS011;73829;53.826;-3.034;2024-02-28T00:54:52;5.80;;;1.30;;
83814;SDS011;73829;53.826;-3.034;2024-02-28T00:57:23;5.60;;;1.20;;
83814;SDS011;73829;53.826;-3.034;2024-02-28T00:59:56;4.70;;;1.00;;
83814;SDS011;73829;53.826;-3.034;2024-02-28T01:02:27;3.60;;;1.30;;
83814;SDS011;73829;53.826;-3.034;2024-02-28T01:04:58;7.00;;;1.40;;
83814;SDS011;73829;53.826;-3.034;2024-02-28T01:07:31;4.20;;;0.90;;
83814;SDS011;73829;53.826;-3.034;2024-02-28T01:10:02;5.20;;;1.00;;
83814;SDS011;73829;53.826;-3.034;2024-02-28T01:12:35;5.30;;;1.40;;
83814;SDS011;73829;53.826;-3.034;2024-02-28T01:15:07;5.30;;;1.10;;
83814;SDS011;73829;53.826;-3.034;2024-02-28T01:17:39;4.00;;;1.10;;
83814;SDS011;73829;53.826;-3.034;2024-02-28T01:20:10;4.70;;;1.30;;
83814;SDS011;73829;53.826;-3.034;2024-02-28T01:22:50;4.60;;;1.10;;
83814;SDS011;73829;53.826;-3.034;2024-02-28T01:25:21;4.60;;;1.10;;
83814;SDS011;73829;53.826;-3.034;2024-02-28T01:27:52;4.30;;;0.90;;
83814;SDS011;73829;53.826;-3.034;2024-02-28T01:30:26;5.20;;;1.20;;
83814;SDS011;73829;53.826;-3.034;2024-02-28T01:32:57;3.80;;;1.00;;
83814;SDS011;73829;53.826;-3.034;2024-02-28T01:35:28;4.10;;;1.00;;
83814;SDS011;73829;53.826;-3.034;2024-02-28T01:37:59;4.50;;;1.00;;
83814;SDS011;73829;53.826;-3.034;2024-02-28T01:40:30;5.10;;;1.30;;
83814;SDS011;73829;53.826;-3.034;2024-02-28T01:43:06;5.10;;;1.10;;
83814;SDS011;73829;53.826;-3.034;2024-02-28T01:45:38;5.50;;;1.10;;
83814;SDS011;73829;53.826;-3.034;2024-02-28T01:48:10;4.10;;;1.20;;
83814;SDS011;73829;53.826;-3.034;2024-02-28T01:50:42;4.50;;;1.30;;
83814;SDS011;73829;53.826;-3.034;2024-02-28T01:53:14;6.20;;;0.90;;
83814;SDS011;73829;53.826;-3.034;2024-02-28T01:55:45;4.20;;;1.10;;
83814;SDS011;73829;53.826;-3.034;2024-02-28T01:58:16;5.10;;;1.20;;
83814;SDS011;73829;53.826;-3.034;2024-02-28T02:00:48;5.70;;;1.10;;
83814;SDS011;73829;53.826;-3.034;2024-02-28T02:03:21;3.10;;;0.80;;
83814;SDS011;73829;53.826;-3.034;2024-02-28T02:05:52;4.70;;;1.10;;
83814;SDS011;73829;53.826;-3.034;2024-02-28T02:08:24;6.20;;;1.60;;
83814;SDS011;73829;53.826;-3.034;2024-02-28T02:10:56;4.80;;;1.00;;
83814;SDS011;73829;53.826;-3.034;2024-02-28T02:13:27;3.70;;;1.10;;
83814;SDS011;73829;53.826;-3.034;2024-02-28T02:15:58;3.60;;;0.90;;
83814;SDS011;73829;53.826;-3.034;2024-02-28T02:18:29;4.90;;;1.00;;
83814;SDS011;73829;53.826;-3.034;2024-02-28T02:21:02;3.80;;;1.00;;
83814;SDS011;73829;53.826;-3.034;2024-02-28T02:23:36;3.00;;;0.70;;
83814;SDS011;73829;53.826;-3.034;2024-02-28T02:26:09;5.40;;;1.10;;
83814;SDS011;73829;53.826;-3.034;2024-02-28T02:28:40;3.80;;;0.90;;
83814;SDS011;73829;53.826;-3.034;2024-02-28T02:31:12;4.10;;;0.90;;
83814;SDS011;73829;53.826;-3.034;2024-02-28T02:33:43;4.60;;;1.20;;
83814;SDS011;73829;53.826;-3.034;2024-02-28T02:36:14;4.80;;;1.30;;
83814;SDS011;73829;53.826;-3.034;2024-02-28T02:38:45;4.80;;;1.10;;
83814;SDS011;73829;53.826;-3.034;2024-02-28T02:41:17;4.50;;;1.00;;
83814;SDS011;73829;53.826;-3.034;2024-02-28T02:43:49;4.20;;;1.10;;
83814;SDS011;73829;53.826;-3.034;2024-02-28T02:46:20;3.60;;;0.90;;
83814;SDS011;73829;53.826;-3.034;2024-02-28T02:48:51;4.80;;;0.90;;
83814;SDS011;73829;53.826;-3.034;2024-02-28T02:51:22;3.70;;;1.00;;
83814;SDS011;73829;53.826;-3.034;2024-02-28T02:53:54;3.60;;;0.80;;
83814;SDS011;73829;53.826;-3.034;2024-02-28T02:56:25;3.60;;;0.80;;
83814;SDS011;73829;53.826;-3.034;2024-02-28T02:58:56;4.10;;;0.90;;
83814;SDS011;73829;53.826;-3.034;2024-02-28T03:01:28;3.40;;;0.90;;
83814;SDS011;73829;53.826;-3.034;2024-02-28T03:03:59;2.70;;;0.70;;
83814;SDS011;73829;53.826;-3.034;2024-02-28T03:06:30;3.30;;;1.20;;
83814;SDS011;73829;53.826;-3.034;2024-02-28T03:09:02;5.00;;;1.10;;
83814;SDS011;73829;53.826;-3.034;2024-02-28T03:11:35;4.10;;;1.00;;
83814;SDS011;73829;53.826;-3.034;2024-02-28T03:14:07;6.70;;;0.90;;
83814;SDS011;73829;53.826;-3.034;2024-02-28T03:16:41;6.40;;;1.30;;
83814;SDS011;73829;53.826;-3.034;2024-02-28T03:19:13;3.20;;;0.90;;
83814;SDS011;73829;53.826;-3.034;2024-02-28T03:21:44;5.80;;;1.10;;
83814;SDS011;73829;53.826;-3.034;2024-02-28T03:24:15;4.70;;;1.20;;
83814;SDS011;73829;53.826;-3.034;2024-02-28T03:26:46;4.40;;;1.00;;
83814;SDS011;73829;53.826;-3.034;2024-02-28T03:29:17;4.80;;;1.00;;
83814;SDS011;73829;53.826;-3.034;2024-02-28T03:31:51;4.90;;;1.10;;
83814;SDS011;73829;53.826;-3.034;2024-02-28T03:34:23;3.10;;;0.90;;
83814;SDS011;73829;53.826;-3.034;2024-02-28T03:36:54;4.50;;;1.20;;
83814;SDS011;73829;53.826;-3.034;2024-02-28T03:39:26;3.30;;;0.70;;
83814;SDS011;73829;53.826;-3.034;2024-02-28T03:41:57;4.10;;;1.10;;
83814;SDS011;73829;53.826;-3.034;2024-02-28T03:44:29;4.60;;;1.00;;
83814;SDS011;73829;53.826;-3.034;2024-02-28T03:47:00;3.40;;;0.80;;
83814;SDS011;73829;53.826;-3.034;2024-02-28T03:49:31;4.60;;;1.20;;
83814;SDS011;73829;53.826;-3.034;2024-02-28T03:52:02;4.10;;;1.00;;
83814;SDS011;73829;53.826;-3.034;2024-02-28T03:54:34;6.90;;;1.30;;
83814;SDS011;73829;53.826;-3.034;2024-02-28T03:57:05;5.50;;;1.00;;
83814;SDS011;73829;53.826;-3.034;2024-02-28T03:59:37;3.20;;;0.90;;
83814;SDS011;73829;53.826;-3.034;2024-02-28T04:02:09;4.90;;;0.90;;
83814;SDS011;73829;53.826;-3.034;2024-02-28T04:04:41;3.50;;;0.90;;
83814;SDS011;73829;53.826;-3.034;2024-02-28T04:07:12;3.90;;;1.20;;
83814;SDS011;73829;53.826;-3.034;2024-02-28T04:09:43;5.40;;;1.10;;
83814;SDS011;73829;53.826;-3.034;2024-02-28T04:12:14;4.70;;;1.30;;
83814;SDS011;73829;53.826;-3.034;2024-02-28T04:14:45;4.80;;;1.10;;
83814;SDS011;73829;53.826;-3.034;2024-02-28T04:17:17;3.40;;;0.80;;
83814;SDS011;73829;53.826;-3.034;2024-02-28T04:19:48;4.00;;;0.90;;
83814;SDS011;73829;53.826;-3.034;2024-02-28T04:22:19;3.20;;;1.00;;
83814;SDS011;73829;53.826;-3.034;2024-02-28T04:24:50;4.00;;;1.10;;
83814;SDS011;73829;53.826;-3.034;2024-02-28T04:27:22;3.10;;;0.80;;
83814;SDS011;73829;53.826;-3.034;2024-02-28T04:29:53;4.20;;;1.10;;
83814;SDS011;73829;53.826;-3.034;2024-02-28T04:32:24;5.70;;;0.80;;
83814;SDS011;73829;53.826;-3.034;2024-02-28T04:34:55;3.60;;;1.20;;
83814;SDS011;73829;53.826;-3.034;2024-02-28T04:37:28;3.70;;;0.90;;
83814;SDS011;73829;53.826;-3.034;2024-02-28T04:39:59;5.20;;;1.00;;
83814;SDS011;73829;53.826;-3.034;2024-02-28T04:42:30;4.80;;;1.10;;
83814;SDS011;73829;53.826;-3.034;2024-02-28T04:45:02;3.50;;;0.90;;
83814;SDS011;73829;53.826;-3.034;2024-02-28T04:47:33;4.10;;;0.90;;
83814;SDS011;73829;53.826;-3.034;2024-02-28T04:50:05;3.80;;;1.10;;
83814;SDS011;73829;53.826;-3.034;2024-02-28T04:52:38;4.60;;;0.90;;
83814;SDS011;73829;53.826;-3.034;2024-02-28T04:55:09;4.30;;;0.90;;
83814;SDS011;73829;53.826;-3.034;2024-02-28T04:57:41;4.20;;;0.70;;
83814;SDS011;73829;53.826;-3.034;2024-02-28T05:00:13;5.30;;;1.00;;
83814;SDS011;73829;53.826;-3.034;2024-02-28T05:02:44;3.90;;;0.70;;
83814;SDS011;73829;53.826;-3.034;2024-02-28T05:05:16;5.60;;;1.00;;
83814;SDS011;73829;53.826;-3.034;2024-02-28T05:07:47;4.20;;;0.90;;
83814;SDS011;73829;53.826;-3.034;2024-02-28T05:10:19;4.40;;;0.90;;
83814;SDS011;73829;53.826;-3.034;2024-02-28T05:12:50;4.20;;;1.00;;
83814;SDS011;73829;53.826;-3.034;2024-02-28T05:15:21;4.20;;;0.90;;
83814;SDS011;73829;53.826;-3.034;2024-02-28T05:17:53;3.50;;;0.90;;
83814;SDS011;73829;53.826;-3.034;2024-02-28T05:20:24;5.10;;;1.00;;
83814;SDS011;73829;53.826;-3.034;2024-02-28T05:22:55;3.80;;;0.90;;
83814;SDS011;73829;53.826;-3.034;2024-02-28T05:25:26;2.90;;;0.70;;
83814;SDS011;73829;53.826;-3.034;2024-02-28T05:27:57;4.60;;;0.90;;
83814;SDS011;73829;53.826;-3.034;2024-02-28T05:30:29;4.50;;;1.00;;
83814;SDS011;73829;53.826;-3.034;2024-02-28T05:33:00;3.50;;;0.80;;
83814;SDS011;73829;53.826;-3.034;2024-02-28T05:35:33;5.90;;;1.20;;
83814;SDS011;73829;53.826;-3.034;2024-02-28T05:38:04;3.50;;;0.80;;
83814;SDS011;73829;53.826;-3.034;2024-02-28T05:40:35;6.10;;;1.40;;
83814;SDS011;73829;53.826;-3.034;2024-02-28T05:43:06;3.60;;;0.90;;
83814;SDS011;73829;53.826;-3.034;2024-02-28T05:45:37;4.00;;;1.10;;
83814;SDS011;73829;53.826;-3.034;2024-02-28T05:48:09;3.70;;;1.10;;
83814;SDS011;73829;53.826;-3.034;2024-02-28T05:50:40;3.40;;;0.80;;
83814;SDS011;73829;53.826;-3.034;2024-02-28T05:53:11;4.00;;;0.90;;
83814;SDS011;73829;53.826;-3.034;2024-02-28T05:55:44;3.80;;;1.00;;
83814;SDS011;73829;53.826;-3.034;2024-02-28T05:58:15;2.80;;;0.90;;
83814;SDS011;73829;53.826;-3.034;2024-02-28T06:00:48;2.90;;;0.60;;
83814;SDS011;73829;53.826;-3.034;2024-02-28T06:03:19;4.10;;;0.80;;
83814;SDS011;73829;53.826;-3.034;2024-02-28T06:05:51;3.70;;;0.90;;
83814;SDS011;73829;53.826;-3.034;2024-02-28T06:08:25;3.20;;;0.80;;
83814;SDS011;73829;53.826;-3.034;2024-02-28T06:10:56;4.30;;;1.00;;
83814;SDS011;73829;53.826;-3.034;2024-02-28T06:13:28;3.20;;;0.90;;
83814;SDS011;73829;53.826;-3.034;2024-02-28T06:15:59;3.20;;;0.80;;
83814;SDS011;73829;53.826;-3.034;2024-02-28T06:18:30;3.40;;;1.00;;
83814;SDS011;73829;53.826;-3.034;2024-02-28T06:21:02;4.40;;;0.90;;
83814;SDS011;73829;53.826;-3.034;2024-02-28T06:23:33;3.80;;;0.90;;
83814;SDS011;73829;53.826;-3.034;2024-02-28T06:26:05;3.40;;;0.80;;
83814;SDS011;73829;53.826;-3.034;2024-02-28T06:28:42;4.10;;;0.90;;
83814;SDS011;73829;53.826;-3.034;2024-02-28T06:31:15;4.30;;;1.00;;
83814;SDS011;73829;53.826;-3.034;2024-02-28T06:33:47;3.80;;;0.80;;
83814;SDS011;73829;53.826;-3.034;2024-02-28T06:36:18;3.70;;;0.80;;
83814;SDS011;73829;53.826;-3.034;2024-02-28T06:38:49;3.50;;;0.80;;
83814;SDS011;73829;53.826;-3.034;2024-02-28T06:41:21;3.30;;;0.70;;
83814;SDS011;73829;53.826;-3.034;2024-02-28T06:43:52;6.00;;;1.00;;
83814;SDS011;73829;53.826;-3.034;2024-02-28T06:46:23;3.80;;;0.80;;
83814;SDS011;73829;53.826;-3.034;2024-02-28T06:48:54;3.70;;;1.00;;
83814;SDS011;73829;53.826;-3.034;2024-02-28T06:51:25;2.90;;;0.90;;
83814;SDS011;73829;53.826;-3.034;2024-02-28T06:53:57;4.40;;;0.90;;
83814;SDS011;73829;53.826;-3.034;2024-02-28T06:56:29;3.50;;;0.80;;
83814;SDS011;73829;53.826;-3.034;2024-02-28T06:59:00;4.60;;;1.10;;
83814;SDS011;73829;53.826;-3.034;2024-02-28T07:01:34;2.80;;;0.60;;
83814;SDS011;73829;53.826;-3.034;2024-02-28T07:04:06;3.10;;;0.80;;
83814;SDS011;73829;53.826;-3.034;2024-02-28T07:06:37;3.80;;;0.70;;
83814;SDS011;73829;53.826;-3.034;2024-02-28T07:09:08;4.90;;;1.00;;
83814;SDS011;73829;53.826;-3.034;2024-02-28T07:11:41;3.40;;;1.10;;
83814;SDS011;73829;53.826;-3.034;2024-02-28T07:14:12;3.70;;;0.80;;
83814;SDS011;73829;53.826;-3.034;2024-02-28T07:16:44;4.10;;;1.10;;
83814;SDS011;73829;53.826;-3.034;2024-02-28T07:19:16;5.10;;;1.20;;
83814;SDS011;73829;53.826;-3.034;2024-02-28T07:21:47;5.10;;;1.10;;
83814;SDS011;73829;53.826;-3.034;2024-02-28T07:24:18;3.70;;;1.10;;
83814;SDS011;73829;53.826;-3.034;2024-02-28T07:26:50;2.40;;;0.60;;
83814;SDS011;73829;53.826;-3.034;2024-02-28T07:29:21;3.70;;;0.80;;
83814;SDS011;73829;53.826;-3.034;2024-02-28T07:31:52;3.30;;;0.80;;
83814;SDS011;73829;53.826;-3.034;2024-02-28T07:34:23;4.00;;;0.90;;
83814;SDS011;73829;53.826;-3.034;2024-02-28T07:36:54;3.40;;;0.90;;
83814;SDS011;73829;53.826;-3.034;2024-02-28T07:39:26;3.30;;;0.80;;
83814;SDS011;73829;53.826;-3.034;2024-02-28T07:41:57;3.20;;;0.80;;
83814;SDS011;73829;53.826;-3.034;2024-02-28T07:44:28;3.80;;;0.80;;
83814;SDS011;73829;53.826;-3.034;2024-02-28T07:46:59;3.60;;;0.70;;
83814;SDS011;73829;53.826;-3.034;2024-02-28T07:49:31;4.70;;;1.20;;
83814;SDS011;73829;53.826;-3.034;2024-02-28T07:52:02;3.20;;;0.90;;
83814;SDS011;73829;53.826;-3.034;2024-02-28T07:54:33;4.00;;;0.80;;
83814;SDS011;73829;53.826;-3.034;2024-02-28T07:57:05;3.80;;;1.40;;
83814;SDS011;73829;53.826;-3.034;2024-02-28T07:59:39;4.20;;;0.80;;
83814;SDS011;73829;53.826;-3.034;2024-02-28T08:02:11;4.10;;;1.30;;
83814;SDS011;73829;53.826;-3.034;2024-02-28T08:04:42;4.50;;;0.90;;
83814;SDS011;73829;53.826;-3.034;2024-02-28T08:07:13;4.10;;;0.80;;
83814;SDS011;73829;53.826;-3.034;2024-02-28T08:09:44;3.30;;;0.80;;
83814;SDS011;73829;53.826;-3.034;2024-02-28T08:12:15;2.40;;;0.70;;
83814;SDS011;73829;53.826;-3.034;2024-02-28T08:14:49;3.80;;;1.00;;
83814;SDS011;73829;53.826;-3.034;2024-02-28T08:17:20;4.30;;;1.00;;
83814;SDS011;73829;53.826;-3.034;2024-02-28T08:19:52;3.20;;;0.80;;
83814;SDS011;73829;53.826;-3.034;2024-02-28T08:22:23;3.80;;;0.80;;
83814;SDS011;73829;53.826;-3.034;2024-02-28T08:24:54;3.50;;;0.90;;
83814;SDS011;73829;53.826;-3.034;2024-02-28T08:27:25;3.60;;;1.00;;
83814;SDS011;73829;53.826;-3.034;2024-02-28T08:29:56;3.70;;;1.00;;
83814;SDS011;73829;53.826;-3.034;2024-02-28T08:32:27;3.80;;;0.90;;
83814;SDS011;73829;53.826;-3.034;2024-02-28T08:34:59;7.20;;;1.00;;
83814;SDS011;73829;53.826;-3.034;2024-02-28T08:37:30;7.80;;;1.50;;
83814;SDS011;73829;53.826;-3.034;2024-02-28T08:40:01;7.50;;;1.90;;
83814;SDS011;73829;53.826;-3.034;2024-02-28T08:42:33;9.20;;;1.70;;
83814;SDS011;73829;53.826;-3.034;2024-02-28T08:45:06;6.70;;;1.80;;
83814;SDS011;73829;53.826;-3.034;2024-02-28T08:47:39;7.50;;;1.80;;
83814;SDS011;73829;53.826;-3.034;2024-02-28T08:50:11;7.70;;;2.10;;
83814;SDS011;73829;53.826;-3.034;2024-02-28T08:52:42;9.40;;;1.60;;
83814;SDS011;73829;53.826;-3.034;2024-02-28T08:55:14;8.90;;;1.70;;
83814;SDS011;73829;53.826;-3.034;2024-02-28T08:57:46;9.70;;;1.70;;
83814;SDS011;73829;53.826;-3.034;2024-02-28T09:00:18;10.80;;;2.20;;
83814;SDS011;73829;53.826;-3.034;2024-02-28T09:02:50;9.80;;;2.10;;
83814;SDS011;73829;53.826;-3.034;2024-02-28T09:05:21;7.90;;;1.80;;
83814;SDS011;73829;53.826;-3.034;2024-02-28T09:07:54;9.80;;;1.90;;
83814;SDS011;73829;53.826;-3.034;2024-02-28T09:10:25;12.50;;;2.20;;
83814;SDS011;73829;53.826;-3.034;2024-02-28T09:12:59;10.80;;;2.00;;
83814;SDS011;73829;53.826;-3.034;2024-02-28T09:15:32;10.10;;;1.90;;
83814;SDS011;73829;53.826;-3.034;2024-02-28T09:18:06;8.20;;;2.20;;
83814;SDS011;73829;53.826;-3.034;2024-02-28T09:20:38;9.20;;;1.90;;
83814;SDS011;73829;53.826;-3.034;2024-02-28T09:23:09;7.40;;;1.80;;
83814;SDS011;73829;53.826;-3.034;2024-02-28T09:25:42;8.80;;;1.60;;
83814;SDS011;73829;53.826;-3.034;2024-02-28T09:28:13;7.10;;;1.80;;
83814;SDS011;73829;53.826;-3.034;2024-02-28T09:30:45;7.00;;;1.80;;
83814;SDS011;73829;53.826;-3.034;2024-02-28T09:33:18;7.80;;;2.30;;
83814;SDS011;73829;53.826;-3.034;2024-02-28T09:35:49;8.50;;;1.90;;
83814;SDS011;73829;53.826;-3.034;2024-02-28T09:38:20;8.30;;;1.70;;
83814;SDS011;73829;53.826;-3.034;2024-02-28T09:40:51;7.60;;;1.90;;
83814;SDS011;73829;53.826;-3.034;2024-02-28T09:43:24;7.00;;;1.90;;
83814;SDS011;73829;53.826;-3.034;2024-02-28T09:46:04;9.40;;;1.80;;
83814;SDS011;73829;53.826;-3.034;2024-02-28T09:48:39;8.90;;;1.80;;
83814;SDS011;73829;53.826;-3.034;2024-02-28T09:51:11;9.40;;;2.60;;
83814;SDS011;73829;53.826;-3.034;2024-02-28T09:53:43;6.70;;;2.00;;
83814;SDS011;73829;53.826;-3.034;2024-02-28T09:56:14;7.50;;;1.70;;
83814;SDS011;73829;53.826;-3.034;2024-02-28T09:58:47;8.20;;;1.80;;
83814;SDS011;73829;53.826;-3.034;2024-02-28T10:01:18;7.00;;;1.70;;
83814;SDS011;73829;53.826;-3.034;2024-02-28T10:03:51;7.90;;;1.90;;
83814;SDS011;73829;53.826;-3.034;2024-02-28T10:06:22;8.90;;;2.10;;
83814;SDS011;73829;53.826;-3.034;2024-02-28T10:08:54;7.20;;;2.10;;
83814;SDS011;73829;53.826;-3.034;2024-02-28T10:14:31;7.40;;;1.70;;
83814;SDS011;73829;53.826;-3.034;2024-02-28T10:17:03;9.80;;;2.40;;
83814;SDS011;73829;53.826;-3.034;2024-02-28T10:19:35;8.30;;;1.70;;
83814;SDS011;73829;53.826;-3.034;2024-02-28T10:22:07;6.50;;;1.90;;
83814;SDS011;73829;53.826;-3.034;2024-02-28T10:24:38;8.50;;;2.30;;
83814;SDS011;73829;53.826;-3.034;2024-02-28T10:27:10;8.40;;;2.30;;
83814;SDS011;73829;53.826;-3.034;2024-02-28T10:29:44;7.90;;;2.00;;
83814;SDS011;73829;53.826;-3.034;2024-02-28T10:32:15;9.10;;;2.10;;
83814;SDS011;73829;53.826;-3.034;2024-02-28T10:34:47;10.20;;;1.80;;
83814;SDS011;73829;53.826;-3.034;2024-02-28T10:37:19;7.00;;;2.40;;
83814;SDS011;73829;53.826;-3.034;2024-02-28T10:39:51;7.00;;;1.80;;
83814;SDS011;73829;53.826;-3.034;2024-02-28T10:42:26;8.60;;;2.30;;
83814;SDS011;73829;53.826;-3.034;2024-02-28T10:45:00;8.00;;;2.00;;
83814;SDS011;73829;53.826;-3.034;2024-02-28T10:47:33;6.40;;;1.70;;
83814;SDS011;73829;53.826;-3.034;2024-02-28T10:50:05;6.40;;;1.60;;
83814;SDS011;73829;53.826;-3.034;2024-02-28T10:52:38;7.10;;;1.90;;
83814;SDS011;73829;53.826;-3.034;2024-02-28T10:55:13;6.90;;;1.60;;
83814;SDS011;73829;53.826;-3.034;2024-02-28T10:57:46;7.60;;;1.70;;
83814;SDS011;73829;53.826;-3.034;2024-02-28T11:00:21;7.40;;;2.00;;
83814;SDS011;73829;53.826;-3.034;2024-02-28T11:02:53;10.20;;;2.30;;
83814;SDS011;73829;53.826;-3.034;2024-02-28T11:05:35;9.70;;;2.20;;
83814;SDS011;73829;53.826;-3.034;2024-02-28T11:08:09;7.40;;;2.60;;
83814;SDS011;73829;53.826;-3.034;2024-02-28T11:10:44;10.50;;;2.50;;
83814;SDS011;73829;53.826;-3.034;2024-02-28T11:13:22;7.80;;;1.80;;
83814;SDS011;73829;53.826;-3.034;2024-02-28T11:15:54;7.50;;;1.70;;
83814;SDS011;73829;53.826;-3.034;2024-02-28T11:18:35;7.80;;;2.00;;
83814;SDS011;73829;53.826;-3.034;2024-02-28T11:21:16;5.60;;;1.60;;
83814;SDS011;73829;53.826;-3.034;2024-02-28T11:23:48;7.30;;;2.00;;
83814;SDS011;73829;53.826;-3.034;2024-02-28T11:26:20;9.20;;;2.30;;
83814;SDS011;73829;53.826;-3.034;2024-02-28T11:28:52;7.20;;;2.00;;
83814;SDS011;73829;53.826;-3.034;2024-02-28T11:31:23;9.50;;;2.20;;
83814;SDS011;73829;53.826;-3.034;2024-02-28T11:33:54;8.20;;;2.30;;
83814;SDS011;73829;53.826;-3.034;2024-02-28T11:36:25;8.20;;;2.00;;
83814;SDS011;73829;53.826;-3.034;2024-02-28T11:38:57;7.80;;;1.90;;
83814;SDS011;73829;53.826;-3.034;2024-02-28T11:41:28;7.90;;;2.20;;
83814;SDS011;73829;53.826;-3.034;2024-02-28T11:44:00;5.80;;;1.80;;
83814;SDS011;73829;53.826;-3.034;2024-02-28T11:46:31;5.70;;;1.90;;
83814;SDS011;73829;53.826;-3.034;2024-02-28T11:49:02;6.60;;;1.50;;
83814;SDS011;73829;53.826;-3.034;2024-02-28T11:51:34;7.30;;;1.70;;
83814;SDS011;73829;53.826;-3.034;2024-02-28T11:54:05;11.30;;;1.80;;
83814;SDS011;73829;53.826;-3.034;2024-02-28T11:56:37;7.40;;;1.60;;
83814;SDS011;73829;53.826;-3.034;2024-02-28T11:59:08;5.80;;;1.90;;
83814;SDS011;73829;53.826;-3.034;2024-02-28T12:01:43;8.20;;;1.70;;
83814;SDS011;73829;53.826;-3.034;2024-02-28T12:04:14;7.10;;;2.00;;
83814;SDS011;73829;53.826;-3.034;2024-02-28T12:06:45;6.60;;;1.80;;
83814;SDS011;73829;53.826;-3.034;2024-02-28T12:09:17;9.20;;;2.20;;
83814;SDS011;73829;53.826;-3.034;2024-02-28T12:11:48;6.90;;;1.70;;
83814;SDS011;73829;53.826;-3.034;2024-02-28T12:14:19;6.90;;;1.70;;
83814;SDS011;73829;53.826;-3.034;2024-02-28T12:16:50;7.30;;;1.80;;
83814;SDS011;73829;53.826;-3.034;2024-02-28T12:19:21;8.20;;;2.00;;
83814;SDS011;73829;53.826;-3.034;2024-02-28T12:21:54;7.10;;;2.00;;
83814;SDS011;73829;53.826;-3.034;2024-02-28T12:24:26;8.90;;;2.00;;
83814;SDS011;73829;53.826;-3.034;2024-02-28T12:26:57;9.40;;;2.00;;
83814;SDS011;73829;53.826;-3.034;2024-02-28T12:29:29;6.70;;;1.90;;
83814;SDS011;73829;53.826;-3.034;2024-02-28T12:32:01;7.20;;;2.10;;
83814;SDS011;73829;53.826;-3.034;2024-02-28T12:34:33;8.10;;;1.90;;
83814;SDS011;73829;53.826;-3.034;2024-02-28T12:37:05;7.50;;;1.90;;
83814;SDS011;73829;53.826;-3.034;2024-02-28T12:39:36;10.30;;;2.00;;
83814;SDS011;73829;53.826;-3.034;2024-02-28T12:42:08;10.20;;;1.90;;
83814;SDS011;73829;53.826;-3.034;2024-02-28T12:44:40;6.80;;;1.70;;
83814;SDS011;73829;53.826;-3.034;2024-02-28T12:47:13;6.70;;;2.10;;
83814;SDS011;73829;53.826;-3.034;2024-02-28T12:49:45;9.70;;;2.40;;
83814;SDS011;73829;53.826;-3.034;2024-02-28T12:52:16;7.70;;;1.80;;
83814;SDS011;73829;53.826;-3.034;2024-02-28T12:54:47;7.10;;;1.90;;
83814;SDS011;73829;53.826;-3.034;2024-02-28T12:57:18;7.00;;;1.90;;
83814;SDS011;73829;53.826;-3.034;2024-02-28T12:59:49;7.50;;;1.90;;
83814;SDS011;73829;53.826;-3.034;2024-02-28T13:02:21;6.70;;;1.90;;
83814;SDS011;73829;53.826;-3.034;2024-02-28T13:04:53;5.80;;;1.70;;
83814;SDS011;73829;53.826;-3.034;2024-02-28T13:07:24;7.50;;;1.90;;
83814;SDS011;73829;53.826;-3.034;2024-02-28T13:09:59;8.40;;;1.90;;
83814;SDS011;73829;53.826;-3.034;2024-02-28T13:12:32;6.60;;;1.60;;
83814;SDS011;73829;53.826;-3.034;2024-02-28T13:15:05;7.80;;;2.20;;
83814;SDS011;73829;53.826;-3.034;2024-02-28T13:17:38;10.00;;;2.00;;
83814;SDS011;73829;53.826;-3.034;2024-02-28T13:20:10;6.80;;;1.90;;
83814;SDS011;73829;53.826;-3.034;2024-02-28T13:22:45;7.70;;;2.10;;
83814;SDS011;73829;53.826;-3.034;2024-02-28T13:25:16;9.60;;;2.10;;
83814;SDS011;73829;53.826;-3.034;2024-02-28T13:27:48;9.90;;;2.00;;
83814;SDS011;73829;53.826;-3.034;2024-02-28T13:30:19;8.00;;;2.10;;
83814;SDS011;73829;53.826;-3.034;2024-02-28T13:32:50;8.30;;;2.30;;
83814;SDS011;73829;53.826;-3.034;2024-02-28T13:35:22;11.30;;;2.20;;
83814;SDS011;73829;53.826;-3.034;2024-02-28T13:37:53;9.60;;;3.20;;
83814;SDS011;73829;53.826;-3.034;2024-02-28T13:40:27;8.50;;;2.40;;
83814;SDS011;73829;53.826;-3.034;2024-02-28T13:42:59;7.50;;;2.00;;
83814;SDS011;73829;53.826;-3.034;2024-02-28T13:45:31;7.70;;;1.90;;
83814;SDS011;73829;53.826;-3.034;2024-02-28T13:48:02;9.10;;;2.40;;
83814;SDS011;73829;53.826;-3.034;2024-02-28T13:50:33;10.70;;;1.80;;
83814;SDS011;73829;53.826;-3.034;2024-02-28T13:53:05;7.80;;;2.30;;
83814;SDS011;73829;53.826;-3.034;2024-02-28T13:55:36;10.00;;;2.60;;
83814;SDS011;73829;53.826;-3.034;2024-02-28T13:58:07;8.40;;;2.00;;
83814;SDS011;73829;53.826;-3.034;2024-02-28T14:00:40;7.50;;;2.30;;
83814;SDS011;73829;53.826;-3.034;2024-02-28T14:03:13;10.30;;;1.90;;
83814;SDS011;73829;53.826;-3.034;2024-02-28T14:05:45;6.20;;;1.60;;
83814;SDS011;73829;53.826;-3.034;2024-02-28T14:08:16;8.90;;;1.80;;
83814;SDS011;73829;53.826;-3.034;2024-02-28T14:10:47;7.30;;;1.80;;
83814;SDS011;73829;53.826;-3.034;2024-02-28T14:13:19;8.90;;;1.90;;
83814;SDS011;73829;53.826;-3.034;2024-02-28T14:15:50;13.20;;;2.20;;
83814;SDS011;73829;53.826;-3.034;2024-02-28T14:18:22;7.50;;;1.70;;
83814;SDS011;73829;53.826;-3.034;2024-02-28T14:20:54;8.00;;;1.90;;
83814;SDS011;73829;53.826;-3.034;2024-02-28T14:23:26;6.50;;;1.40;;
83814;SDS011;73829;53.826;-3.034;2024-02-28T14:25:57;9.20;;;2.10;;
83814;SDS011;73829;53.826;-3.034;2024-02-28T14:28:30;10.00;;;2.10;;
83814;SDS011;73829;53.826;-3.034;2024-02-28T14:31:01;7.00;;;1.60;;
83814;SDS011;73829;53.826;-3.034;2024-02-28T14:33:32;6.20;;;1.60;;
83814;SDS011;73829;53.826;-3.034;2024-02-28T14:36:04;8.30;;;1.60;;
83814;SDS011;73829;53.826;-3.034;2024-02-28T14:38:36;6.70;;;1.70;;
83814;SDS011;73829;53.826;-3.034;2024-02-28T14:41:07;8.20;;;2.40;;
83814;SDS011;73829;53.826;-3.034;2024-02-28T14:43:39;5.50;;;1.80;;
83814;SDS011;73829;53.826;-3.034;2024-02-28T14:46:10;8.60;;;2.20;;
83814;SDS011;73829;53.826;-3.034;2024-02-28T14:48:41;7.40;;;1.60;;
83814;SDS011;73829;53.826;-3.034;2024-02-28T14:51:19;6.30;;;1.40;;
83814;SDS011;73829;53.826;-3.034;2024-02-28T14:53:50;8.10;;;1.60;;
83814;SDS011;73829;53.826;-3.034;2024-02-28T14:56:22;7.00;;;1.60;;
83814;SDS011;73829;53.826;-3.034;2024-02-28T14:58:53;4.80;;;1.20;;
83814;SDS011;73829;53.826;-3.034;2024-02-28T15:01:24;8.00;;;1.60;;
83814;SDS011;73829;53.826;-3.034;2024-02-28T15:03:56;8.20;;;1.90;;